createdAt,value
2023-02-07T00:01:33.060Z,103777.59
2023-02-07T00:04:00.352Z,103775.50
2023-02-07T00:06:32.502Z,103777.97
2023-02-07T00:09:01.181Z,103776.03
2023-02-07T00:11:28.268Z,103774.84
2023-02-07T00:13:57.977Z,103772.00
2023-02-07T00:16:26.371Z,103764.00
2023-02-07T00:18:55.278Z,103764.63
2023-02-07T00:21:24.489Z,103772.16
2023-02-07T00:23:53.576Z,103779.69
2023-02-07T00:26:24.265Z,103774.22
2023-02-07T00:28:53.786Z,103768.91
2023-02-07T00:31:29.841Z,103771.25
2023-02-07T00:34:01.046Z,103778.00
2023-02-07T00:36:31.856Z,103769.19
2023-02-07T00:39:01.709Z,103770.75
2023-02-07T00:41:29.776Z,103764.53
2023-02-07T00:43:57.298Z,103760.88
2023-02-07T00:46:25.317Z,103758.94
2023-02-07T00:48:52.522Z,103766.59
2023-02-07T00:51:19.990Z,103765.56
2023-02-07T00:53:48.505Z,103748.97
2023-02-07T00:56:15.970Z,103755.69
2023-02-07T00:58:43.170Z,103766.84
2023-02-07T01:01:10.334Z,103759.59
2023-02-07T01:03:38.059Z,103747.41
2023-02-07T01:06:06.715Z,103743.25
2023-02-07T01:08:34.683Z,103764.00
2023-02-07T01:11:08.870Z,103765.03
2023-02-07T01:13:36.195Z,103757.91
2023-02-07T01:16:04.031Z,103756.72
2023-02-07T01:18:31.966Z,103761.91
2023-02-07T01:20:59.255Z,103754.66
2023-02-07T01:23:26.266Z,103766.72
2023-02-07T01:25:53.282Z,103766.59
2023-02-07T01:28:20.346Z,103755.94
2023-02-07T01:30:47.859Z,103761.78
2023-02-07T01:33:15.223Z,103751.28
2023-02-07T01:35:46.580Z,103754.50
2023-02-07T01:38:13.694Z,103753.59
2023-02-07T01:40:40.767Z,103755.94
2023-02-07T01:43:14.447Z,103758.41
2023-02-07T01:45:41.615Z,103758.00
2023-02-07T01:48:15.586Z,103752.81
2023-02-07T01:50:46.915Z,103745.56
2023-02-07T01:53:17.571Z,103760.22
2023-02-07T01:55:48.602Z,103754.59
2023-02-07T01:58:16.846Z,103764.97
2023-02-07T02:00:45.599Z,103769.25
2023-02-07T02:03:12.789Z,103760.19
2023-02-07T02:05:41.389Z,103751.47
2023-02-07T02:08:08.802Z,103760.03
2023-02-07T02:11:18.559Z,103759.25
2023-02-07T02:14:18.519Z,103756.53
2023-02-07T02:16:55.849Z,103754.84
2023-02-07T02:20:01.950Z,103759.25
2023-02-07T02:23:04.559Z,103760.69
2023-02-07T02:26:25.907Z,103768.22
2023-02-07T02:29:48.297Z,103765.41
2023-02-07T02:32:55.222Z,103757.25
2023-02-07T02:36:02.981Z,103754.38
2023-02-07T02:38:46.159Z,103756.47
2023-02-07T02:41:21.839Z,103758.69
2023-02-07T02:44:18.447Z,103764.25
2023-02-07T02:46:47.884Z,103763.09
2023-02-07T02:49:16.847Z,103763.47
2023-02-07T02:51:44.185Z,103756.19
2023-02-07T02:54:39.462Z,103760.75
2023-02-07T02:57:36.730Z,103767.88
2023-02-07T03:00:09.772Z,103759.31
2023-02-07T03:03:04.349Z,103757.88
2023-02-07T03:06:04.903Z,103758.03
2023-02-07T03:09:00.526Z,103754.78
2023-02-07T03:11:33.878Z,103760.22
2023-02-07T03:14:31.967Z,103763.06
2023-02-07T03:17:49.220Z,103754.50
2023-02-07T03:20:30.369Z,103764.63
2023-02-07T03:23:00.124Z,103765.41
2023-02-07T03:25:29.371Z,103768.78
2023-02-07T03:27:57.182Z,103763.59
2023-02-07T03:30:31.362Z,103760.75
2023-02-07T03:33:07.791Z,103761.53
2023-02-07T03:36:00.631Z,103756.19
2023-02-07T03:38:27.823Z,103762.81
2023-02-07T03:41:04.759Z,103752.19
2023-02-07T03:43:35.364Z,103750.09
2023-02-07T03:46:02.443Z,103753.22
2023-02-07T03:48:29.577Z,103746.06
2023-02-07T03:50:56.662Z,103746.63
2023-02-07T03:53:23.777Z,103744.53
2023-02-07T03:55:51.541Z,103740.78
2023-02-07T03:58:19.021Z,103737.16
2023-02-07T04:00:46.486Z,103746.63
2023-02-07T04:03:13.754Z,103741.94
2023-02-07T04:05:41.392Z,103740.13
2023-02-07T04:08:08.634Z,103734.69
2023-02-07T04:10:35.760Z,103729.50
2023-02-07T04:13:02.925Z,103732.88
2023-02-07T04:15:30.400Z,103738.56
2023-02-07T04:17:57.525Z,103725.97
2023-02-07T04:20:24.875Z,103737.91
2023-02-07T04:22:52.145Z,103739.06
2023-02-07T04:25:19.352Z,103730.78
2023-02-07T04:27:46.774Z,103727.13
2023-02-07T04:30:14.198Z,103729.59
2023-02-07T04:32:41.488Z,103729.22
2023-02-07T04:35:09.315Z,103739.16
2023-02-07T04:37:36.620Z,103727.50
2023-02-07T04:40:04.248Z,103727.09
2023-02-07T04:42:31.492Z,103728.66
2023-02-07T04:44:58.778Z,103727.34
2023-02-07T04:47:26.024Z,103723.28
2023-02-07T04:49:53.546Z,103718.50
2023-02-07T04:52:20.556Z,103720.97
2023-02-07T04:54:47.594Z,103724.84
2023-02-07T04:57:15.940Z,103714.97
2023-02-07T04:59:43.212Z,103716.38
2023-02-07T05:02:10.331Z,103722.22
2023-02-07T05:04:38.584Z,103715.97
2023-02-07T05:07:06.033Z,103721.78
2023-02-07T05:09:33.406Z,103721.41
2023-02-07T05:12:00.497Z,103722.16
2023-02-07T05:14:27.645Z,103723.44
2023-02-07T05:16:54.935Z,103728.50
2023-02-07T05:19:22.339Z,103738.06
2023-02-07T05:21:49.450Z,103745.84
2023-02-07T05:24:16.581Z,103735.19
2023-02-07T05:26:43.768Z,103737.53
2023-02-07T05:29:10.878Z,103736.34
2023-02-07T05:31:56.914Z,103735.44
2023-02-07T05:34:24.260Z,103744.47
2023-02-07T05:36:51.386Z,103740.84
2023-02-07T05:39:18.510Z,103743.13
2023-02-07T05:41:45.805Z,103745.47
2023-02-07T05:44:13.239Z,103747.78
2023-02-07T05:46:40.324Z,103755.25
2023-02-07T05:49:07.443Z,103756.78
2023-02-07T05:51:34.643Z,103746.94
2023-02-07T05:54:01.681Z,103755.63
2023-02-07T05:56:28.984Z,103759.72
2023-02-07T05:58:56.183Z,103754.94
2023-02-07T06:01:23.502Z,103767.88
2023-02-07T06:03:51.171Z,103774.41
2023-02-07T06:06:18.423Z,103769.88
2023-02-07T06:08:45.657Z,103764.44
2023-02-07T06:11:12.992Z,103765.69
2023-02-07T06:13:40.234Z,103769.38
2023-02-07T06:16:07.671Z,103774.28
2023-02-07T06:18:34.815Z,103781.53
2023-02-07T06:21:01.910Z,103783.22
2023-02-07T06:23:28.984Z,103783.22
2023-02-07T06:25:56.474Z,103775.31
2023-02-07T06:28:23.815Z,103774.47
2023-02-07T06:30:52.438Z,103781.78
2023-02-07T06:33:20.118Z,103786.78
2023-02-07T06:35:47.491Z,103786.00
2023-02-07T06:38:16.998Z,103794.41
2023-02-07T06:40:45.065Z,103794.25
2023-02-07T06:43:12.522Z,103790.63
2023-02-07T06:45:39.894Z,103795.81
2023-02-07T06:48:10.005Z,103803.44
2023-02-07T06:50:37.479Z,103799.00
2023-02-07T06:53:04.973Z,103799.63
2023-02-07T06:55:37.637Z,103797.03
2023-02-07T06:58:06.655Z,103805.56
2023-02-07T07:00:34.241Z,103801.03
2023-02-07T07:03:01.921Z,103806.06
2023-02-07T07:05:30.550Z,103802.53
2023-02-07T07:07:58.480Z,103807.44
2023-02-07T07:10:25.592Z,103814.44
2023-02-07T07:12:52.696Z,103822.31
2023-02-07T07:15:20.350Z,103820.22
2023-02-07T07:17:47.454Z,103824.00
2023-02-07T07:20:14.767Z,103818.22
2023-02-07T07:22:42.377Z,103825.50
2023-02-07T07:25:09.992Z,103829.00
2023-02-07T07:27:37.454Z,103834.16
2023-02-07T07:30:05.350Z,103828.72
2023-02-07T07:32:34.495Z,103836.16
2023-02-07T07:35:02.769Z,103837.78
2023-02-07T07:37:29.942Z,103845.38
2023-02-07T07:39:57.164Z,103840.63
2023-02-07T07:42:24.540Z,103843.34
2023-02-07T07:44:51.824Z,103836.63
2023-02-07T07:47:19.130Z,103850.78
2023-02-07T07:49:47.205Z,103851.34
2023-02-07T07:52:14.370Z,103852.81
2023-02-07T07:54:41.527Z,103854.94
2023-02-07T07:57:08.702Z,103857.16
2023-02-07T07:59:35.826Z,103852.56
2023-02-07T08:02:03.061Z,103855.59
2023-02-07T08:04:30.421Z,103859.78
2023-02-07T08:06:57.790Z,103853.19
2023-02-07T08:09:24.926Z,103850.75
2023-02-07T08:11:51.957Z,103853.13
2023-02-07T08:14:18.989Z,103858.09
2023-02-07T08:16:46.221Z,103853.97
2023-02-07T08:19:16.116Z,103854.66
2023-02-07T08:21:44.770Z,103865.59
2023-02-07T08:24:12.423Z,103858.22
2023-02-07T08:26:39.746Z,103864.22
2023-02-07T08:29:07.250Z,103857.78
2023-02-07T08:31:34.612Z,103855.88
2023-02-07T08:34:01.872Z,103861.59
2023-02-07T08:36:29.422Z,103865.00
2023-02-07T08:38:56.647Z,103867.38
2023-02-07T08:41:23.688Z,103862.59
2023-02-07T08:43:51.043Z,103858.97
2023-02-07T08:46:18.164Z,103856.16
2023-02-07T08:48:45.261Z,103860.81
2023-02-07T08:51:12.404Z,103856.81
2023-02-07T08:53:39.598Z,103846.84
2023-02-07T08:56:08.703Z,103855.28
2023-02-07T08:58:35.824Z,103856.72
2023-02-07T09:01:03.183Z,103859.88
2023-02-07T09:03:30.388Z,103863.00
2023-02-07T09:05:59.372Z,103850.28
2023-02-07T09:08:26.655Z,103852.63
2023-02-07T09:10:54.091Z,103850.41
2023-02-07T09:13:21.521Z,103852.75
2023-02-07T09:15:58.561Z,103859.25
2023-02-07T09:18:27.032Z,103849.78
2023-02-07T09:20:54.233Z,103848.59
2023-02-07T09:23:21.516Z,103836.00
2023-02-07T09:25:52.529Z,103834.59
2023-02-07T09:28:22.535Z,103839.75
2023-02-07T09:30:50.441Z,103842.88
2023-02-07T09:33:18.259Z,103836.34
2023-02-07T09:35:46.972Z,103836.88
2023-02-07T09:38:20.831Z,103839.09
2023-02-07T09:40:52.657Z,103835.03
2023-02-07T09:43:39.880Z,103827.75
2023-02-07T09:46:33.353Z,103823.94
2023-02-07T09:49:55.968Z,103827.84
2023-02-07T09:52:49.099Z,103817.03
2023-02-07T09:55:25.954Z,103821.00
2023-02-07T09:58:06.722Z,103821.50
2023-02-07T10:00:40.108Z,103815.13
2023-02-07T10:03:24.505Z,103816.53
2023-02-07T10:06:17.368Z,103820.38
2023-02-07T10:08:50.242Z,103811.28
2023-02-07T10:11:37.555Z,103817.75
2023-02-07T10:14:38.765Z,103817.44
2023-02-07T10:17:31.363Z,103817.81
2023-02-07T10:20:32.515Z,103821.69
2023-02-07T10:23:37.038Z,103817.84
2023-02-07T10:26:32.730Z,103812.25
2023-02-07T10:29:50.688Z,103810.25
2023-02-07T10:32:28.186Z,103811.63
2023-02-07T10:35:35.439Z,103810.16
2023-02-07T10:38:03.503Z,103802.72
2023-02-07T10:40:52.000Z,103810.88
2023-02-07T10:43:32.615Z,103803.44
2023-02-07T10:46:08.979Z,103807.41
2023-02-07T10:48:38.443Z,103807.63
2023-02-07T10:51:45.990Z,103800.31
2023-02-07T10:54:16.893Z,103797.00
2023-02-07T10:56:48.252Z,103804.16
2023-02-07T10:59:35.235Z,103801.91
2023-02-07T11:02:22.949Z,103800.44
2023-02-07T11:04:50.041Z,103790.13
2023-02-07T11:07:17.153Z,103795.56
2023-02-07T11:09:44.282Z,103783.78
2023-02-07T11:12:25.538Z,103780.63
2023-02-07T11:15:15.508Z,103780.97
2023-02-07T11:17:56.133Z,103782.13
2023-02-07T11:20:40.004Z,103783.34
2023-02-07T11:23:14.072Z,103776.91
2023-02-07T11:25:47.265Z,103779.16
2023-02-07T11:28:23.199Z,103776.66
2023-02-07T11:31:17.012Z,103777.22
2023-02-07T11:33:44.639Z,103772.13
2023-02-07T11:36:23.695Z,103775.28
2023-02-07T11:38:56.434Z,103768.63
2023-02-07T11:41:31.057Z,103784.56
2023-02-07T11:43:59.638Z,103776.19
2023-02-07T11:46:41.848Z,103776.31
2023-02-07T11:49:25.163Z,103771.41
2023-02-07T11:52:00.309Z,103778.56
2023-02-07T11:54:30.175Z,103770.94
2023-02-07T11:57:17.749Z,103771.19
2023-02-07T12:00:01.538Z,103772.09
2023-02-07T12:02:31.081Z,103768.91
2023-02-07T12:05:22.715Z,103772.50
2023-02-07T12:08:06.204Z,103768.44
2023-02-07T12:10:38.825Z,103768.44
2023-02-07T12:13:38.266Z,103767.84
2023-02-07T12:16:41.518Z,103763.75
2023-02-07T12:19:55.995Z,103763.16
2023-02-07T12:22:31.743Z,103768.50
2023-02-07T12:25:30.090Z,103769.53
2023-02-07T12:28:04.823Z,103764.41
2023-02-07T12:30:42.036Z,103764.63
2023-02-07T12:33:27.847Z,103770.19
2023-02-07T12:36:10.464Z,103767.78
2023-02-07T12:38:50.396Z,103757.53
2023-02-07T12:41:36.588Z,103763.88
2023-02-07T12:44:32.458Z,103752.03
2023-02-07T12:47:13.785Z,103760.09
2023-02-07T12:50:01.958Z,103763.03
2023-02-07T12:53:29.017Z,103769.28
2023-02-07T12:56:14.533Z,103761.66
2023-02-07T12:59:08.846Z,103767.88
2023-02-07T13:02:22.464Z,103768.88
2023-02-07T13:05:13.815Z,103767.06
2023-02-07T13:08:41.366Z,103758.66
2023-02-07T13:11:20.328Z,103751.94
2023-02-07T13:13:59.410Z,103758.16
2023-02-07T13:16:47.168Z,103754.16
2023-02-07T13:19:47.625Z,103759.47
2023-02-07T13:22:42.320Z,103756.97
2023-02-07T13:25:21.041Z,103758.69
2023-02-07T13:27:50.087Z,103753.56
2023-02-07T13:30:19.429Z,103747.56
2023-02-07T13:32:48.885Z,103750.59
2023-02-07T13:35:21.993Z,103742.09
2023-02-07T13:38:28.915Z,103750.31
2023-02-07T13:41:26.248Z,103749.50
2023-02-07T13:44:10.720Z,103740.09
2023-02-07T13:46:56.398Z,103742.91
2023-02-07T13:50:04.186Z,103734.34
2023-02-07T13:52:59.893Z,103735.25
2023-02-07T13:55:40.582Z,103734.56
2023-02-07T13:58:54.552Z,103732.97
2023-02-07T14:01:28.558Z,103729.44
2023-02-07T14:04:14.109Z,103724.81
2023-02-07T14:06:53.105Z,103721.59
2023-02-07T14:09:45.770Z,103713.88
2023-02-07T14:12:30.890Z,103713.16
2023-02-07T14:15:34.971Z,103714.28
2023-02-07T14:18:06.547Z,103708.16
2023-02-07T14:20:36.542Z,103709.94
2023-02-07T14:23:08.028Z,103710.84
2023-02-07T14:25:34.875Z,103709.25
2023-02-07T14:28:06.372Z,103704.09
2023-02-07T14:30:57.115Z,103705.94
2023-02-07T14:33:36.758Z,103702.41
2023-02-07T14:36:12.894Z,103705.00
2023-02-07T14:38:58.951Z,103704.09
2023-02-07T14:41:37.551Z,103704.00
2023-02-07T14:44:10.390Z,103703.81
2023-02-07T14:46:48.909Z,103703.72
2023-02-07T14:49:42.929Z,103710.75
2023-02-07T14:52:39.081Z,103718.50
2023-02-07T14:55:17.848Z,103720.91
2023-02-07T14:57:54.636Z,103721.69
2023-02-07T15:00:49.413Z,103725.13
2023-02-07T15:03:21.810Z,103728.44
2023-02-07T15:05:52.005Z,103717.78
2023-02-07T15:08:23.080Z,103724.59
2023-02-07T15:11:12.712Z,103717.56
2023-02-07T15:13:49.766Z,103720.78
2023-02-07T15:16:27.057Z,103721.38
2023-02-07T15:19:00.969Z,103723.09
2023-02-07T15:21:54.532Z,103714.25
2023-02-07T15:24:39.789Z,103725.38
2023-02-07T15:27:29.022Z,103720.69
2023-02-07T15:30:02.443Z,103712.47
2023-02-07T15:32:34.927Z,103715.69
2023-02-07T15:35:27.876Z,103719.78
2023-02-07T15:38:13.781Z,103724.81
2023-02-07T15:40:41.381Z,103719.25
2023-02-07T15:43:31.366Z,103722.50
2023-02-07T15:46:10.596Z,103720.59
2023-02-07T15:48:56.227Z,103727.19
2023-02-07T15:51:29.152Z,103720.72
2023-02-07T15:54:01.481Z,103723.75
2023-02-07T15:56:30.569Z,103736.78
2023-02-07T15:59:08.847Z,103728.63
2023-02-07T16:01:36.197Z,103729.91
2023-02-07T16:04:04.631Z,103737.41
2023-02-07T16:06:32.943Z,103733.38
2023-02-07T16:09:03.367Z,103736.44
2023-02-07T16:11:30.567Z,103735.19
2023-02-07T16:14:22.320Z,103728.75
2023-02-07T16:16:55.892Z,103728.91
2023-02-07T16:19:31.109Z,103724.72
2023-02-07T16:22:04.528Z,103724.19
2023-02-07T16:24:36.971Z,103727.03
2023-02-07T16:27:06.551Z,103722.97
2023-02-07T16:29:36.687Z,103725.13
2023-02-07T16:32:04.530Z,103721.97
2023-02-07T16:34:32.003Z,103728.41
2023-02-07T16:36:59.468Z,103734.75
2023-02-07T16:39:26.899Z,103733.19
2023-02-07T16:42:05.392Z,103734.41
2023-02-07T16:44:38.896Z,103732.94
2023-02-07T16:47:15.716Z,103737.69
2023-02-07T16:49:48.663Z,103744.69
2023-02-07T16:52:55.198Z,103748.50
2023-02-07T16:56:16.479Z,103754.50
2023-02-07T17:10:39.016Z,103765.59
2023-02-07T17:13:50.442Z,103756.06
2023-02-07T17:16:33.576Z,103761.56
2023-02-07T17:19:35.626Z,103766.94
2023-02-07T17:22:23.275Z,103762.69
2023-02-07T17:25:22.838Z,103764.16
2023-02-07T17:28:14.786Z,103768.97
2023-02-07T17:31:05.418Z,103765.84
2023-02-07T17:33:47.792Z,103771.50
2023-02-07T17:36:20.960Z,103768.28
2023-02-07T17:38:56.586Z,103764.25
2023-02-07T17:41:24.440Z,103768.94
2023-02-07T17:43:54.840Z,103770.41
2023-02-07T17:46:27.664Z,103777.00
2023-02-07T17:48:57.861Z,103772.25
2023-02-07T17:51:27.418Z,103766.66
2023-02-07T17:53:58.881Z,103764.47
2023-02-07T17:56:31.950Z,103761.38
2023-02-07T17:59:03.664Z,103757.47
2023-02-07T18:01:33.022Z,103756.44
2023-02-07T18:04:00.371Z,103750.22
2023-02-07T18:06:29.935Z,103749.03
2023-02-07T18:09:16.337Z,103755.69
2023-02-07T18:11:46.288Z,103756.97
2023-02-07T18:14:13.422Z,103761.00
2023-02-07T18:16:41.618Z,103754.50
2023-02-07T18:19:14.505Z,103747.38
2023-02-07T18:21:41.744Z,103746.97
2023-02-07T18:24:09.646Z,103744.16
2023-02-07T18:26:37.168Z,103745.59
2023-02-07T18:29:04.870Z,103743.63
2023-02-07T18:31:32.554Z,103745.84
2023-02-07T18:34:00.453Z,103745.56
2023-02-07T18:36:30.016Z,103748.94
2023-02-07T18:38:58.887Z,103753.88
2023-02-07T18:41:26.778Z,103756.06
2023-02-07T18:43:54.383Z,103753.34
2023-02-07T18:46:21.816Z,103758.53
2023-02-07T18:48:53.930Z,103760.34
2023-02-07T18:51:21.440Z,103762.69
2023-02-07T18:53:50.490Z,103752.97
2023-02-07T18:56:42.945Z,103756.19
2023-02-07T18:59:11.725Z,103756.72
2023-02-07T19:01:48.563Z,103761.66
2023-02-07T19:04:33.668Z,103752.56
2023-02-07T19:07:06.711Z,103756.72
2023-02-07T19:10:01.060Z,103749.41
2023-02-07T19:12:35.300Z,103753.44
2023-02-07T19:15:08.409Z,103747.22
2023-02-07T19:17:36.542Z,103742.41
2023-02-07T19:20:11.879Z,103751.88
2023-02-07T19:22:41.941Z,103748.09
2023-02-07T19:25:25.269Z,103745.50
2023-02-07T19:27:52.788Z,103746.81
2023-02-07T19:30:31.088Z,103738.00
2023-02-07T19:33:06.267Z,103728.13
2023-02-07T19:35:58.173Z,103735.75
2023-02-07T19:38:57.643Z,103730.44
2023-02-07T19:41:38.472Z,103733.53
2023-02-07T19:44:18.198Z,103737.56
2023-02-07T19:46:54.946Z,103733.28
2023-02-07T19:49:53.152Z,103728.75
2023-02-07T19:52:40.363Z,103734.84
2023-02-07T19:55:14.997Z,103735.31
2023-02-07T19:58:00.723Z,103735.97
2023-02-07T20:01:07.426Z,103734.16
2023-02-07T20:03:43.787Z,103734.00
2023-02-07T20:09:44.598Z,103735.28
2023-02-07T20:12:12.649Z,103729.06
2023-02-07T20:14:40.544Z,103728.91
2023-02-07T20:17:12.064Z,103732.28
2023-02-07T20:19:48.516Z,103724.13
2023-02-07T20:22:16.043Z,103728.41
2023-02-07T20:24:43.796Z,103718.53
2023-02-07T20:27:27.202Z,103722.78
2023-02-07T20:30:04.286Z,103721.75
2023-02-07T20:32:31.800Z,103721.50
2023-02-07T20:34:59.687Z,103724.56
2023-02-07T20:37:27.300Z,103715.63
2023-02-07T20:40:00.526Z,103719.00
2023-02-07T20:42:46.340Z,103721.44
2023-02-07T20:45:20.119Z,103711.59
2023-02-07T20:47:49.806Z,103707.97
2023-02-07T20:50:17.980Z,103701.72
2023-02-07T20:52:47.518Z,103704.19
2023-02-07T20:55:25.213Z,103704.94
2023-02-07T20:57:55.146Z,103697.06
2023-02-07T21:00:22.854Z,103697.69
2023-02-07T21:02:53.572Z,103703.63
2023-02-07T21:05:26.274Z,103696.50
2023-02-07T21:07:54.858Z,103696.38
2023-02-07T21:10:25.611Z,103688.47
2023-02-07T21:12:54.023Z,103686.66
2023-02-07T21:15:33.584Z,103685.75
2023-02-07T21:18:12.401Z,103685.75
2023-02-07T21:20:56.592Z,103681.19
2023-02-07T21:23:26.682Z,103687.00
2023-02-07T21:26:18.148Z,103686.88
2023-02-07T21:28:46.072Z,103699.94
2023-02-07T21:31:20.523Z,103699.94
2023-02-07T21:33:51.823Z,103699.81
2023-02-07T21:36:26.201Z,103694.63
2023-02-07T21:39:01.931Z,103698.13
2023-02-07T21:41:29.540Z,103693.59
2023-02-07T21:44:13.100Z,103693.44
2023-02-07T21:46:46.230Z,103686.31
2023-02-07T21:49:16.587Z,103687.88
2023-02-07T21:51:55.555Z,103683.31
2023-02-07T21:54:22.872Z,103687.44
2023-02-07T21:56:51.864Z,103685.47
2023-02-07T21:59:21.246Z,103685.34
2023-02-07T22:01:52.435Z,103683.69
2023-02-07T22:04:20.011Z,103685.22
2023-02-07T22:06:53.789Z,103688.59
2023-02-07T22:09:25.818Z,103688.41
2023-02-07T22:11:54.795Z,103697.72
2023-02-07T22:14:25.920Z,103689.84
2023-02-07T22:16:54.357Z,103691.38
2023-02-07T22:19:22.684Z,103678.91
2023-02-07T22:21:50.828Z,103684.88
2023-02-07T22:24:19.909Z,103681.22
2023-02-07T22:26:47.601Z,103687.19
2023-02-07T22:29:15.164Z,103677.44
2023-02-07T22:31:42.995Z,103682.47
2023-02-07T22:34:14.338Z,103679.91
2023-02-07T22:36:44.632Z,103680.41
2023-02-07T22:39:14.787Z,103683.75
2023-02-07T22:41:42.934Z,103683.75
2023-02-07T22:44:10.700Z,103686.94
2023-02-07T22:46:38.462Z,103681.66
2023-02-07T22:49:05.803Z,103685.91
2023-02-07T22:51:36.759Z,103678.03
2023-02-07T22:54:08.886Z,103677.13
2023-02-07T22:56:38.390Z,103682.28
2023-02-07T22:59:06.817Z,103670.72
2023-02-07T23:01:39.128Z,103677.56
2023-02-07T23:04:14.198Z,103674.88
2023-02-07T23:06:42.140Z,103693.72
2023-02-07T23:09:12.110Z,103684.16
2023-02-07T23:11:39.546Z,103677.03
2023-02-07T23:14:07.422Z,103673.38
2023-02-07T23:16:40.552Z,103679.31
2023-02-07T23:19:13.978Z,103680.88
2023-02-07T23:21:41.818Z,103676.47
2023-02-07T23:24:10.801Z,103669.34
2023-02-07T23:26:39.299Z,103672.72
2023-02-07T23:29:06.880Z,103672.72
2023-02-07T23:31:37.319Z,103675.13
2023-02-07T23:34:09.580Z,103686.22
2023-02-07T23:36:40.218Z,103687.00
2023-02-07T23:39:28.899Z,103680.03
2023-02-07T23:41:58.043Z,103687.00
2023-02-07T23:44:25.490Z,103686.88
2023-02-07T23:46:53.151Z,103677.44
2023-02-07T23:49:20.365Z,103679.88
2023-02-07T23:51:48.188Z,103684.16
2023-02-07T23:54:17.054Z,103683.25
2023-02-07T23:56:44.353Z,103676.09
2023-02-07T23:59:12.769Z,103681.44
